AirNav   Free SoundLink Mini II speaker
 
 1199 users online  

KNFE Fentress Naval Auxiliary Field
Fentress, Virginia, USA

GOING TO FENTRESS?


FAA INFORMATION EFFECTIVE 26 MARCH 2020

Location

FAA Identifier: NFE
Lat/Long: 36-41-31.3310N 076-08-04.4305W
36-41.522183N 076-08.073842W
36.6920364,-76.1345640
(estimated)
Elevation: 16 ft. / 5 m (estimated)
Variation: 09W (1985)
Time zone: UTC -4 (UTC -5 during Standard Time)
Zip code: 23322

Airport Operations

Airport use: Private use. Permission required prior to landing
Activation date: 08/1943
Control tower: no
ARTCC: WASHINGTON CENTER
FSS: LEESBURG FLIGHT SERVICE STATION
Attendance: UNATNDD
Segmented circle: no
Lights: RY LGTS OPERATED BY CRASH CREW DURING SCHEDULED OPNS.

Airport Communications

OCEANA APPROACH: 123.9
OCEANA DEPARTURE: 123.9
WX AWOS-3 at CPK (9 nm W): 123.675 (757-204-4290)
WX ASOS at NTU (9 nm NE): PHONE DSN 433-3619 or 757-433-3619
WX ASOS at ORF (13 nm N): PHONE 757-460-9348
WX AWOS-3PT at PVG (16 nm W): 118.375 (757-465-2175)
WX AWOS-3 at ONX (18 nm S): 119.775 (252-453-8939)

Nearby radio navigation aids

VOR radial/distance  VOR name  Freq  Var
ORFr172/12.4NORFOLK VORTAC116.9007W
ECGr011/26.1ELIZABETH CITY VOR/DME112.5007W
CCVr199/39.9CAPE CHARLES VORTAC112.2010W

 
NDB name  Hdg/Dist  Freq  Var  ID
INGLE157/10.532909WOR --- .-.
WOODVILLE027/26.925410WLLW .-.. .-.. .--

Airport Services

Runway Information

Runway 5/23

Dimensions: 8004 x 175 ft. / 2440 x 53 m
Surface: asphalt
Weight bearing capacity: 
PCN 40 /R/C/W/T
Runway edge lights: low intensity
RUNWAY 5  RUNWAY 23
Latitude: 36-41.014033N36-42.030333N
Longitude: 076-08.595917W076-07.551767W
Elevation: 14.5 ft.14.2 ft.
Traffic pattern: leftleft
Runway heading: 049 magnetic, 040 true228 magnetic, 219 true
Touchdown point: yes, no lightsyes, no lights

Airport Ownership and Management from official FAA records

Ownership: U.S. Navy
Owner: US NAVY
OCEANOGRAPHIC OFC - CODE 3142
WASHINGTON, DC 20373

Additional Remarks

FOR CD CTC WASHINGTON ARTCC AT 703-771-3587.

Instrument Procedures

There are no published instrument procedures at KNFE.

Some nearby airports with instrument procedures:

KCPK - Chesapeake Regional Airport (9 nm W)
KNTU - Oceana Naval Air Station (Apollo Soucek Field) (9 nm NE)
KORF - Norfolk International Airport (13 nm N)
KPVG - Hampton Roads Executive Airport (16 nm W)
KNGU - Norfolk Naval Station (Chambers Field) (16 nm NW)
KONX - Currituck County Regional Airport (18 nm S)
 
Loc | Ops | Rwys | IFR | FBO | Links
Com | Nav | Svcs | Stats | Notes
Area around KNFE (Fentress Naval Auxiliary Field)
 
Road maps at: MapQuest Bing Google
 
Aerial photo
WARNING: Photo may not be current or correct
Aerial photo of KNFE (Fentress Naval Auxiliary Field)
Do you have a better or more recent aerial photo of Fentress Naval Auxiliary Field that you would like to share? If so, please send us your photo.

 
Sectional chart

 
Airport distance calculator
Flying to Fentress Naval Auxiliary Field? Find the distance to fly.

From to KNFE

Sunrise and sunset
Times for 08-Apr-2020
 Local
(UTC-4)
 Zulu
(UTC)
Morning civil twilight06:1410:14
Sunrise06:4010:40
Sunset19:3223:32
Evening civil twilight19:5923:59

Current date and time
Zulu (UTC)  08-Apr-2020 16:12:15
Local (UTC-4)  08-Apr-2020 12:12:15
 
METAR
KNFE 081556Z AUTO 24007G15KT 10SM CLR 26/11 A2962 RMK AO2 SLP031 T02560111
KCPK 
9nm W 
081555Z AUTO 22012G17KT 7SM CLR 24/12 A2964 RMK AO2 T02390116
KNTU 
9nm NE 
081556Z 26009KT 10SM SCT150 BKN250 24/11 A2960 RMK AO2 SLP025 T02440111
KORF 
13nm N 
081551Z 24012G17KT 10SM CLR 24/12 A2960 RMK AO2 SLP022 T02440117
KNGU 
15nm NW 
081559Z 25013G20KT 10SM FEW110 BKN200 24/12 A2963 RMK AO2 PK WND 24027/1518 SLP033 T02390117
KPVG 
16nm W 
081556Z AUTO 23015G18KT 10SM FEW120 25/12 A2964 RMK AO2 SLP038 T02500117
KONX 
18nm S 
081555Z AUTO 24014G18KT 10SM SCT120 24/14 RMK AO2 T02410142
TAF
KNTU 
9nm NE 
0807/0907 25009KT 9999 SCT250 QNH2960INS BECMG 0818/0820 28010KT 9999 VCTS SCT150 BKN250CB QNH2949INS TEMPO 0822/0901 VRB20G30KT 6000 TSRA BKN020 BKN050CB BKN250 BECMG 0902/0904 VRB05KT 9999 NSW FEW150 QNH2955INS T14/0811Z T27/0818Z FN00223
KORF 
13nm N 
081140Z 0812/0912 26011KT P6SM BKN200 FM081500 25012G18KT P6SM FEW070 FM081900 27012KT P6SM VCSH BKN060 FM090000 35007KT P6SM SCT060 FM090600 VRB03KT P6SM SCT250
KNGU 
15nm NW 
0809/0907 23007KT 9999 SCT250 QNH2956INS BECMG 0813/0815 26008KT 9999 FEW250 QNH2952INS BECMG 0819/0821 28010KT 9999 VCTS FEW050CB BKN250 QNH2953INS TEMPO 0820/0901 VRB20G30KT 6000 TSRA BKN020CB OVC050 BECMG 0900/0902 VRB05KT 9999 NSW FEW150 QNH2952INS T17/0811Z T27/0819Z AMD 0925 FN20002
NOTAMs
Click for the latest NOTAMs
NOTAMs are issued by the DoD/FAA and will open in a separate window not controlled by AirNav.

 

 
 

Would you like to see your business listed on this page?

 If your business provides an interesting product or service to pilots, flight crews, aircraft, or users of the Fentress Naval Auxiliary Field, you should consider listing it here.  To start the listing process, click on the button below
 
Add a business
 

Other Pages about Fentress Naval Auxiliary Field

Update a link
 
Copyright © AirNav, LLC. All rights reserved. Privacy Policy  Contact